Observation data for O'Donnell on 03/25/2019      Previous  Date  Next       Current Mesonet Observations  Soil Data  Daily Summary Page  Observations in Plain Language
KOES 250500Z 10005KT 13/02 A3011 RMK A01 T01330021  RH  047%=      5-min Rain = 0
KOES 250505Z 11006KT 13/02 A3011 RMK A01 T01280018  RH  048%=      5-min Rain = 0
KOES 250510Z 11007KT 13/02 A3011 RMK A01 T01260021  RH  050%=      5-min Rain = 0
KOES 250515Z 12007KT 13/03 A3011 RMK A01 T01250025  RH  051%=      5-min Rain = 0
KOES 250520Z 12007KT 13/03 A3011 RMK A01 T01270026  RH  051%=      5-min Rain = 0
KOES 250525Z 11007KT 13/03 A3011 RMK A01 T01250025  RH  051%=      5-min Rain = 0
KOES 250530Z 12007KT 12/02 A3011 RMK A01 T01210024  RH  052%=      5-min Rain = 0
KOES 250535Z 11006KT 12/02 A3011 RMK A01 T01210024  RH  052%=      5-min Rain = 0
KOES 250540Z 10004KT 12/03 A3011 RMK A01 T01210025  RH  053%=      5-min Rain = 0
KOES 250545Z 06003KT 12/02 A3012 RMK A01 T01190018  RH  051%=      5-min Rain = 0
KOES 250550Z 07004KT 11/02 A3012 RMK A01 T01120017  RH  052%=      5-min Rain = 0
KOES 250555Z 09003KT 11/02 A3012 RMK A01 T01080016  RH  054%=      5-min Rain = 0
KOES 250600Z 11003KT 11/02 A3012 RMK A01 T01050018  RH  056%=      5-min Rain = 0
KOES 250605Z 35007KT 10/02 A3013 RMK A01 T01030015  RH  055%=      5-min Rain = 0
KOES 250610Z 10006KT 12/02 A3012 RMK A01 T01200024  RH  053%=      5-min Rain = 0
KOES 250615Z 11006KT 13/03 A3012 RMK A01 T01300025  RH  050%=      5-min Rain = 0
KOES 250620Z 04004KT 12/02 A3013 RMK A01 T01240019  RH  049%=      5-min Rain = 0
KOES 250625Z 10004KT 12/02 A3013 RMK A01 T01170022  RH  053%=      5-min Rain = 0
KOES 250630Z 10004KT 12/02 A3013 RMK A01 T01190018  RH  051%=      5-min Rain = 0
KOES 250635Z 04004KT 11/02 A3013 RMK A01 T01110015  RH  052%=      5-min Rain = 0
KOES 250640Z 10003KT 11/02 A3013 RMK A01 T01070019  RH  055%=      5-min Rain = 0
KOES 250645Z 07004KT 11/02 A3013 RMK A01 T01080015  RH  054%=      5-min Rain = 0
KOES 250650Z 05006KT 10/01 A3013 RMK A01 T01020013  RH  055%=      5-min Rain = 0
KOES 250655Z 05003KT 10/01 A3013 RMK A01 T00960013  RH  057%=      5-min Rain = 0
KOES 250700Z 03005KT 09/01 A3013 RMK A01 T00920010  RH  057%=      5-min Rain = 0
KOES 250705Z 04006KT 09/01 A3014 RMK A01 T00890009  RH  058%=      5-min Rain = 0
KOES 250710Z 03005KT 09/01 A3014 RMK A01 T00860009  RH  059%=      5-min Rain = 0
KOES 250715Z 05005KT 08/01 A3013 RMK A01 T00840008  RH  060%=      5-min Rain = 0
KOES 250720Z 03004KT 08/01 A3014 RMK A01 T00840006  RH  059%=      5-min Rain = 0
KOES 250725Z 04005KT 08/01 A3014 RMK A01 T00820008  RH  060%=      5-min Rain = 0
KOES 250730Z 02003KT 08/01 A3013 RMK A01 T00810008  RH  061%=      5-min Rain = 0
KOES 250735Z 02005KT 08/01 A3014 RMK A01 T00830013  RH  062%=      5-min Rain = 0
KOES 250740Z 04007KT 09/02 A3014 RMK A01 T00900016  RH  061%=      5-min Rain = 0
KOES 250745Z 03005KT 09/01 A3014 RMK A01 T00890014  RH  060%=      5-min Rain = 0
KOES 250750Z 03006KT 08/01 A3014 RMK A01 T00830012  RH  062%=      5-min Rain = 0
KOES 250755Z 06006KT 08/02 A3013 RMK A01 T00840017  RH  064%=      5-min Rain = 0
KOES 250800Z 06006KT 09/02 A3013 RMK A01 T00860015  RH  062%=      5-min Rain = 0
KOES 250805Z 03007KT 08/02 A3014 RMK A01 T00820016  RH  064%=      5-min Rain = 0
KOES 250810Z 04009KT 08/02 A3014 RMK A01 T00810017  RH  065%=      5-min Rain = 0
KOES 250815Z 05010KT 08/02 A3013 RMK A01 T00840020  RH  065%=      5-min Rain = 0
KOES 250820Z 02010KT 08/02 A3014 RMK A01 T00840021  RH  065%=      5-min Rain = 0
KOES 250825Z 05009KT 09/03 A3014 RMK A01 T00860026  RH  067%=      5-min Rain = 0
KOES 250830Z 03009KT 09/03 A3014 RMK A01 T00860026  RH  067%=      5-min Rain = 0
KOES 250835Z 04008KT 09/03 A3014 RMK A01 T00890029  RH  067%=      5-min Rain = 0
KOES 250840Z 02008KT 08/03 A3014 RMK A01 T00840025  RH  067%=      5-min Rain = 0
KOES 250845Z 03007KT 08/03 A3014 RMK A01 T00830027  RH  069%=      5-min Rain = 0
KOES 250850Z 03007KT 08/03 A3014 RMK A01 T00810027  RH  070%=      5-min Rain = 0
KOES 250855Z 02007KT 08/03 A3014 RMK A01 T00820028  RH  070%=      5-min Rain = 0
KOES 250900Z 03010KT 08/03 A3014 RMK A01 T00810027  RH  070%=      5-min Rain = 0
KOES 250905Z 04009KT 08/03 A3014 RMK A01 T00810029  RH  071%=      5-min Rain = 0
KOES 250910Z 03008KT 08/03 A3014 RMK A01 T00810029  RH  071%=      5-min Rain = 0
KOES 250915Z 03007KT 08/03 A3014 RMK A01 T00830031  RH  071%=      5-min Rain = 0
KOES 250920Z 04006KT 08/03 A3014 RMK A01 T00810028  RH  071%=      5-min Rain = 0
KOES 250925Z 05007KT 08/03 A3014 RMK A01 T00780028  RH  072%=      5-min Rain = 0
KOES 250930Z 05005KT 08/03 A3014 RMK A01 T00770029  RH  073%=      5-min Rain = 0
KOES 250935Z 06005KT 08/03 A3014 RMK A01 T00760027  RH  073%=      5-min Rain = 0
KOES 250940Z 05005KT 07/03 A3014 RMK A01 T00730026  RH  073%=      5-min Rain = 0
KOES 250945Z 04006KT 07/03 A3015 RMK A01 T00710026  RH  074%=      5-min Rain = 0
KOES 250950Z 04007KT 07/03 A3015 RMK A01 T00710027  RH  075%=      5-min Rain = 0
KOES 250955Z 03007KT 07/03 A3015 RMK A01 T00700026  RH  075%=      5-min Rain = 0
KOES 251000Z 04007KT 07/03 A3016 RMK A01 T00690025  RH  075%=      5-min Rain = 0
KOES 251005Z 04007KT 07/02 A3016 RMK A01 T00680024  RH  075%=      5-min Rain = 0
KOES 251010Z 05007KT 07/03 A3016 RMK A01 T00670025  RH  076%=      5-min Rain = 0
KOES 251015Z 04008KT 07/03 A3016 RMK A01 T00710031  RH  077%=      5-min Rain = 0
KOES 251020Z 04009KT 07/03 A3016 RMK A01 T00720030  RH  076%=      5-min Rain = 0
KOES 251025Z 04010KT 07/03 A3016 RMK A01 T00720031  RH  076%=      5-min Rain = 0
KOES 251030Z 04010KT 07/03 A3017 RMK A01 T00730031  RH  076%=      5-min Rain = 0
KOES 251035Z 04010KT 07/03 A3017 RMK A01 T00730032  RH  076%=      5-min Rain = 0
KOES 251040Z 04011KT 08/03 A3017 RMK A01 T00750034  RH  077%=      5-min Rain = 0
KOES 251045Z 03008KT 08/03 A3017 RMK A01 T00750033  RH  076%=      5-min Rain = 0
KOES 251050Z 04007KT 07/03 A3017 RMK A01 T00720031  RH  077%=      5-min Rain = 0
KOES 251055Z 04007KT 07/03 A3018 RMK A01 T00700030  RH  077%=      5-min Rain = 0
KOES 251100Z 04007KT 07/03 A3018 RMK A01 T00680030  RH  078%=      5-min Rain = 0
KOES 251105Z 04007KT 07/03 A3018 RMK A01 T00670029  RH  078%=      5-min Rain = 0
KOES 251110Z 04007KT 07/03 A3018 RMK A01 T00660029  RH  079%=      5-min Rain = 0
KOES 251115Z 04008KT 07/03 A3018 RMK A01 T00660029  RH  079%=      5-min Rain = 0
KOES 251120Z 04008KT 07/03 A3018 RMK A01 T00670030  RH  079%=      5-min Rain = 0
KOES 251125Z 03008KT 07/03 A3018 RMK A01 T00670031  RH  079%=      5-min Rain = 0
KOES 251130Z 03008KT 07/03 A3018 RMK A01 T00680031  RH  079%=      5-min Rain = 0
KOES 251135Z 04008KT 07/03 A3019 RMK A01 T00670032  RH  079%=      5-min Rain = 0
KOES 251140Z 03008KT 07/03 A3019 RMK A01 T00680033  RH  080%=      5-min Rain = 0
KOES 251145Z 03008KT 07/03 A3019 RMK A01 T00660031  RH  080%=      5-min Rain = 0
KOES 251150Z 03007KT 06/03 A3019 RMK A01 T00640029  RH  080%=      5-min Rain = 0
KOES 251155Z 03008KT 06/03 A3018 RMK A01 T00620028  RH  080%=      5-min Rain = 0
KOES 251200Z 03007KT 06/03 A3019 RMK A01 T00610028  RH  081%=      5-min Rain = 0
KOES 251205Z 03007KT 06/03 A3019 RMK A01 T00610029  RH  081%=      5-min Rain = 0
KOES 251210Z 02007KT 06/03 A3019 RMK A01 T00610029  RH  081%=      5-min Rain = 0
KOES 251215Z 02007KT 06/03 A3019 RMK A01 T00600029  RH  082%=      5-min Rain = 0
KOES 251220Z 02007KT 06/03 A3019 RMK A01 T00590030  RH  083%=      5-min Rain = 0
KOES 251225Z 03008KT 06/03 A302 RMK A01 T00600031  RH  083%=      5-min Rain = 0
KOES 251230Z 04007KT 06/03 A3019 RMK A01 T00610032  RH  083%=      5-min Rain = 0
KOES 251235Z 03007KT 06/03 A302 RMK A01 T00630033  RH  082%=      5-min Rain = 0
KOES 251240Z 03007KT 06/03 A302 RMK A01 T00640033  RH  082%=      5-min Rain = 0
KOES 251245Z 03006KT 06/03 A302 RMK A01 T00630033  RH  082%=      5-min Rain = 0
KOES 251250Z 02007KT 06/03 A302 RMK A01 T00620031  RH  082%=      5-min Rain = 0
KOES 251255Z 02006KT 06/03 A302 RMK A01 T00600031  RH  083%=      5-min Rain = 0
KOES 251300Z 03007KT 06/03 A3021 RMK A01 T00600031  RH  083%=      5-min Rain = 0
KOES 251305Z 03007KT 06/03 A3021 RMK A01 T00610032  RH  083%=      5-min Rain = 0
KOES 251310Z 03008KT 06/03 A3021 RMK A01 T00630033  RH  083%=      5-min Rain = 0
KOES 251315Z 03008KT 07/03 A3021 RMK A01 T00650034  RH  082%=      5-min Rain = 0
KOES 251320Z 03007KT 07/04 A3021 RMK A01 T00670036  RH  082%=      5-min Rain = 0
KOES 251325Z 03007KT 07/04 A3022 RMK A01 T00710037  RH  081%=      5-min Rain = 0
KOES 251330Z 03007KT 07/04 A3022 RMK A01 T00740038  RH  079%=      5-min Rain = 0
KOES 251335Z 03007KT 08/04 A3022 RMK A01 T00770040  RH  079%=      5-min Rain = 0
KOES 251340Z 03007KT 08/04 A3022 RMK A01 T00810041  RH  078%=      5-min Rain = 0
KOES 251345Z 04007KT 08/04 A3022 RMK A01 T00840043  RH  077%=      5-min Rain = 0
KOES 251350Z 05007KT 09/05 A3023 RMK A01 T00880046  RH  076%=      5-min Rain = 0
KOES 251355Z 05008KT 09/05 A3023 RMK A01 T00920047  RH  075%=      5-min Rain = 0
KOES 251400Z 05008KT 09/05 A3023 RMK A01 T00940048  RH  075%=      5-min Rain = 0
KOES 251405Z 05008KT 10/05 A3024 RMK A01 T00970049  RH  074%=      5-min Rain = 0
KOES 251410Z 05008KT 10/05 A3024 RMK A01 T00990050  RH  073%=      5-min Rain = 0
KOES 251415Z 06009KT 10/05 A3024 RMK A01 T01000050  RH  073%=      5-min Rain = 0
KOES 251420Z 06008KT 10/05 A3024 RMK A01 T01010051  RH  073%=      5-min Rain = 0
KOES 251425Z 06008KT 10/05 A3025 RMK A01 T01040052  RH  072%=      5-min Rain = 0
KOES 251430Z 06009KT 11/05 A3025 RMK A01 T01080054  RH  071%=      5-min Rain = 0
KOES 251435Z 06009KT 11/06 A3025 RMK A01 T01110055  RH  070%=      5-min Rain = 0
KOES 251440Z 07008KT 11/06 A3026 RMK A01 T01140056  RH  069%=      5-min Rain = 0
KOES 251445Z 07009KT 12/06 A3026 RMK A01 T01160056  RH  068%=      5-min Rain = 0
KOES 251450Z 06009KT 12/05 A3026 RMK A01 T01180054  RH  066%=      5-min Rain = 0
KOES 251455Z 07008KT 12/05 A3026 RMK A01 T01200054  RH  065%=      5-min Rain = 0
KOES 251500Z 07009KT 12/05 A3026 RMK A01 T01240053  RH  063%=      5-min Rain = 0
KOES 251505Z 08010KT 13/05 A3027 RMK A01 T01250050  RH  061%=      5-min Rain = 0
KOES 251510Z 07011KT 13/05 A3027 RMK A01 T01270049  RH  060%=      5-min Rain = 0
KOES 251515Z 07010KT 13/05 A3027 RMK A01 T01290050  RH  060%=      5-min Rain = 0
KOES 251520Z 07010KT 13/05 A3028 RMK A01 T01310051  RH  060%=      5-min Rain = 0
KOES 251525Z 06011KT 13/05 A3028 RMK A01 T01320052  RH  059%=      5-min Rain = 0
KOES 251530Z 07011KT 13/05 A3028 RMK A01 T01340053  RH  059%=      5-min Rain = 0
KOES 251535Z 07010KT 14/05 A3028 RMK A01 T01370054  RH  058%=      5-min Rain = 0
KOES 251540Z 06010KT 14/05 A3028 RMK A01 T01420052  RH  056%=      5-min Rain = 0
KOES 251545Z 08009KT 14/05 A3028 RMK A01 T01420051  RH  055%=      5-min Rain = 0
KOES 251550Z 07011KT 14/05 A3029 RMK A01 T01440048  RH  053%=      5-min Rain = 0
KOES 251555Z 08011KT 15/05 A3029 RMK A01 T01470048  RH  053%=      5-min Rain = 0
KOES 251600Z 07011KT 15/05 A3029 RMK A01 T01520048  RH  051%=      5-min Rain = 0
KOES 251605Z 06013KT 15/05 A3029 RMK A01 T01510046  RH  050%=      5-min Rain = 0
KOES 251610Z 06013KT 15/05 A3029 RMK A01 T01520046  RH  050%=      5-min Rain = 0
KOES 251615Z 07012KT 15/05 A3029 RMK A01 T01540046  RH  050%=      5-min Rain = 0
KOES 251620Z 08011KT 16/05 A3029 RMK A01 T01560046  RH  049%=      5-min Rain = 0
KOES 251625Z 08009KT 16/05 A3029 RMK A01 T01560046  RH  049%=      5-min Rain = 0
KOES 251630Z 07011KT 16/05 A3029 RMK A01 T01570045  RH  048%=      5-min Rain = 0
KOES 251635Z 07011KT 16/05 A3029 RMK A01 T01590046  RH  048%=      5-min Rain = 0
KOES 251640Z 08010G15KT 16/05 A3029 RMK A01 T01610045  RH  047%=      5-min Rain = 0
KOES 251645Z 07010KT 16/05 A3029 RMK A01 T01630046  RH  047%=      5-min Rain = 0
KOES 251650Z 10009KT 16/05 A3029 RMK A01 T01640047  RH  047%=      5-min Rain = 0
KOES 251655Z 09011KT 16/05 A3029 RMK A01 T01630045  RH  047%=      5-min Rain = 0
KOES 251700Z 09010KT 16/05 A3029 RMK A01 T01610046  RH  047%=      5-min Rain = 0
KOES 251705Z 08012KT 17/05 A3029 RMK A01 T01650045  RH  046%=      5-min Rain = 0
KOES 251710Z 08011G16KT 16/05 A3029 RMK A01 T01630045  RH  046%=      5-min Rain = 0
KOES 251715Z 07011KT 16/05 A3029 RMK A01 T01640048  RH  047%=      5-min Rain = 0
KOES 251720Z 07011G16KT 17/05 A3029 RMK A01 T01700047  RH  045%=      5-min Rain = 0
KOES 251725Z 07012G17KT 17/05 A3029 RMK A01 T01720045  RH  044%=      5-min Rain = 0
KOES 251730Z 08010G15KT 17/04 A3029 RMK A01 T01710043  RH  044%=      5-min Rain = 0
KOES 251735Z 08011KT 17/05 A3029 RMK A01 T01700046  RH  045%=      5-min Rain = 0
KOES 251740Z 08011KT 17/05 A3029 RMK A01 T01710047  RH  044%=      5-min Rain = 0
KOES 251745Z 09011KT 17/05 A3029 RMK A01 T01720045  RH  044%=      5-min Rain = 0
KOES 251750Z 08010G15KT 17/05 A3029 RMK A01 T01700046  RH  045%=      5-min Rain = 0
KOES 251755Z 08011KT 17/05 A3029 RMK A01 T01730045  RH  044%=      5-min Rain = 0
KOES 251800Z 07009G14KT 18/05 A3028 RMK A01 T01770049  RH  044%=      5-min Rain = 0
KOES 251805Z 07010G15KT 18/05 A3028 RMK A01 T01800048  RH  043%=      5-min Rain = 0
KOES 251810Z 08011G16KT 18/05 A3028 RMK A01 T01780047  RH  043%=      5-min Rain = 0
KOES 251815Z 07010KT 18/05 A3028 RMK A01 T01780046  RH  042%=      5-min Rain = 0
KOES 251820Z 07009KT 18/05 A3028 RMK A01 T01800049  RH  043%=      5-min Rain = 0
KOES 251825Z 07011KT 18/05 A3028 RMK A01 T01840047  RH  041%=      5-min Rain = 0
KOES 251830Z 07011G17KT 18/04 A3028 RMK A01 T01830044  RH  040%=      5-min Rain = 0
KOES 251835Z 11009KT 18/04 A3028 RMK A01 T01800041  RH  041%=      5-min Rain = 0
KOES 251840Z 10009KT 18/04 A3028 RMK A01 T01810041  RH  040%=      5-min Rain = 0
KOES 251845Z 07008KT 19/04 A3028 RMK A01 T01850040  RH  039%=      5-min Rain = 0
KOES 251850Z 09009G14KT 19/04 A3028 RMK A01 T01850042  RH  040%=      5-min Rain = 0
KOES 251855Z 07008G15KT 18/04 A3028 RMK A01 T01840044  RH  040%=      5-min Rain = 0
KOES 251900Z 07009G14KT 19/04 A3027 RMK A01 T01900041  RH  038%=      5-min Rain = 0
KOES 251905Z 07008G13KT 19/04 A3027 RMK A01 T01890041  RH  038%=      5-min Rain = 0
KOES 251910Z 07009KT 19/04 A3027 RMK A01 T01880038  RH  038%=      5-min Rain = 0
KOES 251915Z 07008G13KT 19/04 A3027 RMK A01 T01900039  RH  037%=      5-min Rain = 0
KOES 251920Z 11008KT 19/04 A3027 RMK A01 T01930039  RH  037%=      5-min Rain = 0
KOES 251925Z 12007KT 19/04 A3027 RMK A01 T01920037  RH  036%=      5-min Rain = 0
KOES 251930Z 10009G14KT 19/04 A3026 RMK A01 T01920037  RH  037%=      5-min Rain = 0
KOES 251935Z 09008KT 19/04 A3026 RMK A01 T01930036  RH  036%=      5-min Rain = 0
KOES 251940Z 08008G14KT 19/04 A3026 RMK A01 T01930036  RH  036%=      5-min Rain = 0
KOES 251945Z 08007KT 19/04 A3026 RMK A01 T01900037  RH  037%=      5-min Rain = 0
KOES 251950Z 07007KT 19/04 A3026 RMK A01 T01930036  RH  036%=      5-min Rain = 0
KOES 251955Z 14006G12KT 20/04 A3026 RMK A01 T01970039  RH  036%=      5-min Rain = 0
KOES 252000Z 10005KT 20/04 A3025 RMK A01 T02000042  RH  036%=      5-min Rain = 0
KOES 252005Z 09006KT 20/04 A3025 RMK A01 T02000039  RH  035%=      5-min Rain = 0
KOES 252010Z 07007KT 20/04 A3025 RMK A01 T01990038  RH  035%=      5-min Rain = 0
KOES 252015Z 09008KT 20/04 A3025 RMK A01 T02000038  RH  035%=      5-min Rain = 0
KOES 252020Z 12007KT 20/04 A3025 RMK A01 T02000037  RH  035%=      5-min Rain = 0
KOES 252025Z 07007KT 20/04 A3024 RMK A01 T02030038  RH  034%=      5-min Rain = 0
KOES 252030Z 05008KT 20/04 A3024 RMK A01 T02030035  RH  034%=      5-min Rain = 0
KOES 252035Z 06006KT 20/04 A3024 RMK A01 T02040036  RH  034%=      5-min Rain = 0
KOES 252040Z 10008KT 20/04 A3024 RMK A01 T02040039  RH  034%=      5-min Rain = 0
KOES 252045Z 09006KT 21/04 A3024 RMK A01 T02050035  RH  033%=      5-min Rain = 0
KOES 252050Z 09008G14KT 20/03 A3024 RMK A01 T02040034  RH  033%=      5-min Rain = 0
KOES 252055Z 09007KT 20/03 A3023 RMK A01 T02010029  RH  033%=      5-min Rain = 0
KOES 252100Z 07006G11KT 20/03 A3023 RMK A01 T02000029  RH  033%=      5-min Rain = 0
KOES 252105Z 07007KT 20/03 A3023 RMK A01 T02020027  RH  032%=      5-min Rain = 0
KOES 252110Z 06006KT 20/03 A3023 RMK A01 T02020030  RH  032%=      5-min Rain = 0
KOES 252115Z 07008KT 20/03 A3023 RMK A01 T02040029  RH  032%=      5-min Rain = 0
KOES 252120Z 07007G15KT 20/03 A3022 RMK A01 T02020029  RH  032%=      5-min Rain = 0
KOES 252125Z 06009KT 21/03 A3022 RMK A01 T02050028  RH  031%=      5-min Rain = 0
KOES 252130Z 06009KT 21/03 A3022 RMK A01 T02070026  RH  031%=      5-min Rain = 0
KOES 252135Z 05008KT 20/02 A3022 RMK A01 T02020024  RH  031%=      5-min Rain = 0
KOES 252140Z 05008KT 20/02 A3022 RMK A01 T02040024  RH  031%=      5-min Rain = 0
KOES 252145Z 09006KT 20/02 A3022 RMK A01 T02020024  RH  031%=      5-min Rain = 0
KOES 252150Z 05006KT 20/03 A3022 RMK A01 T02040026  RH  031%=      5-min Rain = 0
KOES 252155Z 05008KT 21/03 A3022 RMK A01 T02080025  RH  030%=      5-min Rain = 0
KOES 252200Z 05006G11KT 21/02 A3022 RMK A01 T02090024  RH  030%=      5-min Rain = 0
KOES 252205Z 09008KT 21/02 A3022 RMK A01 T02070023  RH  030%=      5-min Rain = 0
KOES 252210Z 09008KT 20/02 A3022 RMK A01 T02030024  RH  031%=      5-min Rain = 0
KOES 252215Z 07005KT 20/02 A3022 RMK A01 T02040024  RH  031%=      5-min Rain = 0
KOES 252220Z 08006G11KT 21/02 A3022 RMK A01 T02070022  RH  030%=      5-min Rain = 0
KOES 252225Z 09005KT 20/02 A3022 RMK A01 T02040021  RH  030%=      5-min Rain = 0
KOES 252230Z 05007KT 21/03 A3022 RMK A01 T02060027  RH  031%=      5-min Rain = 0
KOES 252235Z 09009KT 21/03 A3022 RMK A01 T02080027  RH  031%=      5-min Rain = 0
KOES 252240Z 08005G10KT 20/03 A3022 RMK A01 T02040026  RH  031%=      5-min Rain = 0
KOES 252245Z 08006KT 20/03 A3022 RMK A01 T02040026  RH  031%=      5-min Rain = 0
KOES 252250Z 06007KT 20/03 A3022 RMK A01 T02040026  RH  031%=      5-min Rain = 0
KOES 252255Z 06009KT 21/03 A3022 RMK A01 T02060028  RH  031%=      5-min Rain = 0
KOES 252300Z 08007G14KT 21/03 A3022 RMK A01 T02050029  RH  032%=      5-min Rain = 0
KOES 252305Z 07009G14KT 20/03 A3022 RMK A01 T02040029  RH  032%=      5-min Rain = 0
KOES 252310Z 06010KT 21/03 A3022 RMK A01 T02060030  RH  032%=      5-min Rain = 0
KOES 252315Z 08008KT 21/03 A3022 RMK A01 T02050030  RH  032%=      5-min Rain = 0
KOES 252320Z 06006KT 20/03 A3023 RMK A01 T02030030  RH  032%=      5-min Rain = 0
KOES 252325Z 07009KT 20/03 A3022 RMK A01 T02030030  RH  032%=      5-min Rain = 0
KOES 252330Z 06010KT 20/03 A3022 RMK A01 T02020030  RH  033%=      5-min Rain = 0
KOES 252335Z 07009KT 20/03 A3022 RMK A01 T02020030  RH  033%=      5-min Rain = 0
KOES 252340Z 07008KT 20/03 A3023 RMK A01 T02020030  RH  033%=      5-min Rain = 0
KOES 252345Z 08010KT 20/03 A3023 RMK A01 T02020031  RH  033%=      5-min Rain = 0
KOES 252350Z 10007KT 20/03 A3023 RMK A01 T01980032  RH  034%=      5-min Rain = 0
KOES 252355Z 08007KT 20/03 A3023 RMK A01 T01970032  RH  034%=      5-min Rain = 0
KOES 260000Z 07010KT 20/03 A3022 RMK A01 T01970032  RH  034%=      5-min Rain = 0
KOES 260005Z 07008KT 20/03 A3022 RMK A01 T01970031  RH  034%=      5-min Rain = 0
KOES 260010Z 08010KT 20/03 A3023 RMK A01 T01950032  RH  034%=      5-min Rain = 0
KOES 260015Z 08010KT 19/03 A3023 RMK A01 T01930031  RH  035%=      5-min Rain = 0
KOES 260020Z 08009KT 19/03 A3023 RMK A01 T01930032  RH  035%=      5-min Rain = 0
KOES 260025Z 09009KT 19/03 A3023 RMK A01 T01910034  RH  036%=      5-min Rain = 0
KOES 260030Z 09007KT 19/04 A3023 RMK A01 T01900037  RH  037%=      5-min Rain = 0
KOES 260035Z 10008KT 19/04 A3023 RMK A01 T01880037  RH  037%=      5-min Rain = 0
KOES 260040Z 09008KT 19/04 A3023 RMK A01 T01870035  RH  037%=      5-min Rain = 0
KOES 260045Z 09008KT 19/04 A3023 RMK A01 T01850036  RH  038%=      5-min Rain = 0
KOES 260050Z 09008KT 18/04 A3023 RMK A01 T01820039  RH  039%=      5-min Rain = 0
KOES 260055Z 10008KT 18/04 A3023 RMK A01 T01800039  RH  040%=      5-min Rain = 0
KOES 260100Z 10008KT 18/04 A3023 RMK A01 T01780037  RH  040%=      5-min Rain = 0
KOES 260105Z 10007KT 18/04 A3023 RMK A01 T01760038  RH  041%=      5-min Rain = 0
KOES 260110Z 10007KT 17/04 A3023 RMK A01 T01730039  RH  042%=      5-min Rain = 0
KOES 260115Z 09007KT 17/04 A3023 RMK A01 T01700039  RH  042%=      5-min Rain = 0
KOES 260120Z 09007KT 17/04 A3023 RMK A01 T01680039  RH  043%=      5-min Rain = 0
KOES 260125Z 09008KT 17/04 A3023 RMK A01 T01660039  RH  044%=      5-min Rain = 0
KOES 260130Z 09008KT 17/04 A3024 RMK A01 T01650039  RH  044%=      5-min Rain = 0
KOES 260135Z 09009KT 16/04 A3024 RMK A01 T01640040  RH  045%=      5-min Rain = 0
KOES 260140Z 09009KT 16/04 A3024 RMK A01 T01610040  RH  045%=      5-min Rain = 0
KOES 260145Z 09008KT 16/04 A3024 RMK A01 T01600041  RH  046%=      5-min Rain = 0
KOES 260150Z 10008KT 16/04 A3024 RMK A01 T01590042  RH  047%=      5-min Rain = 0
KOES 260155Z 09007KT 16/04 A3024 RMK A01 T01560042  RH  047%=      5-min Rain = 0
KOES 260200Z 10008KT 15/04 A3024 RMK A01 T01540042  RH  048%=      5-min Rain = 0
KOES 260205Z 10009KT 16/04 A3025 RMK A01 T01550042  RH  048%=      5-min Rain = 0
KOES 260210Z 10009KT 15/04 A3025 RMK A01 T01540043  RH  048%=      5-min Rain = 0
KOES 260215Z 10009KT 15/05 A3025 RMK A01 T01520045  RH  050%=      5-min Rain = 0
KOES 260220Z 10009KT 15/05 A3025 RMK A01 T01500046  RH  051%=      5-min Rain = 0
KOES 260225Z 10009KT 15/05 A3025 RMK A01 T01490046  RH  051%=      5-min Rain = 0
KOES 260230Z 11008KT 15/05 A3026 RMK A01 T01470046  RH  052%=      5-min Rain = 0
KOES 260235Z 10009KT 15/05 A3026 RMK A01 T01450046  RH  052%=      5-min Rain = 0
KOES 260240Z 11009KT 15/05 A3026 RMK A01 T01450045  RH  052%=      5-min Rain = 0
KOES 260245Z 11008KT 14/04 A3026 RMK A01 T01410044  RH  053%=      5-min Rain = 0
KOES 260250Z 11009KT 14/04 A3026 RMK A01 T01400044  RH  053%=      5-min Rain = 0
KOES 260255Z 11008KT 14/04 A3026 RMK A01 T01390044  RH  054%=      5-min Rain = 0
KOES 260300Z 11008KT 14/04 A3027 RMK A01 T01370044  RH  054%=      5-min Rain = 0
KOES 260305Z 11008KT 14/04 A3027 RMK A01 T01360044  RH  055%=      5-min Rain = 0
KOES 260310Z 11009KT 13/04 A3027 RMK A01 T01340044  RH  055%=      5-min Rain = 0
KOES 260315Z 11009KT 13/04 A3027 RMK A01 T01340044  RH  056%=      5-min Rain = 0
KOES 260320Z 10009KT 13/04 A3027 RMK A01 T01340044  RH  056%=      5-min Rain = 0
KOES 260325Z 10009KT 13/05 A3027 RMK A01 T01320045  RH  057%=      5-min Rain = 0
KOES 260330Z 10009KT 13/05 A3027 RMK A01 T01320048  RH  058%=      5-min Rain = 0
KOES 260335Z 11008KT 13/05 A3028 RMK A01 T01300049  RH  059%=      5-min Rain = 0
KOES 260340Z 11008KT 13/05 A3028 RMK A01 T01280050  RH  060%=      5-min Rain = 0
KOES 260345Z 11008KT 13/05 A3028 RMK A01 T01270050  RH  061%=      5-min Rain = 0
KOES 260350Z 11008KT 13/05 A3028 RMK A01 T01260050  RH  061%=      5-min Rain = 0
KOES 260355Z 10009KT 13/05 A3028 RMK A01 T01260050  RH  061%=      5-min Rain = 0
KOES 260400Z 10009KT 13/05 A3028 RMK A01 T01260050  RH  061%=      5-min Rain = 0
KOES 260405Z 10009KT 13/05 A3028 RMK A01 T01260051  RH  062%=      5-min Rain = 0
KOES 260410Z 09010KT 13/05 A3028 RMK A01 T01250051  RH  062%=      5-min Rain = 0
KOES 260415Z 10010KT 13/05 A3028 RMK A01 T01250052  RH  062%=      5-min Rain = 0
KOES 260420Z 10010KT 13/05 A3028 RMK A01 T01250053  RH  062%=      5-min Rain = 0
KOES 260425Z 10010KT 13/05 A3028 RMK A01 T01250053  RH  063%=      5-min Rain = 0
KOES 260430Z 11010KT 12/05 A3028 RMK A01 T01240053  RH  063%=      5-min Rain = 0
KOES 260435Z 10010KT 12/05 A3028 RMK A01 T01230053  RH  064%=      5-min Rain = 0
KOES 260440Z 10009KT 12/05 A3029 RMK A01 T01210053  RH  065%=      5-min Rain = 0
KOES 260445Z 10009KT 12/05 A3029 RMK A01 T01210054  RH  065%=      5-min Rain = 0
KOES 260450Z 10009KT 12/05 A3029 RMK A01 T01200054  RH  065%=      5-min Rain = 0
KOES 260455Z 10010KT 12/05 A3028 RMK A01 T01190054  RH  066%=      5-min Rain = 0

Page generated in 0.0098 seconds.